createdAt,value
2022-08-07T00:16:29.273Z,17.60
2022-08-07T00:18:58.417Z,17.50
2022-08-07T00:21:56.195Z,17.50
2022-08-07T00:24:16.539Z,17.50
2022-08-07T00:26:58.461Z,17.40
2022-08-07T00:29:39.392Z,17.10
2022-08-07T00:32:13.478Z,17.10
2022-08-07T00:34:42.831Z,17.10
2022-08-07T00:37:11.998Z,17.10
2022-08-07T00:39:45.046Z,16.90
2022-08-07T00:42:25.515Z,16.90
2022-08-07T00:44:58.796Z,16.80
2022-08-07T00:48:08.218Z,16.70
2022-08-07T00:50:43.631Z,16.70
2022-08-07T00:53:09.223Z,16.70
2022-08-07T00:56:03.371Z,16.60
2022-08-07T00:58:28.673Z,16.60
2022-08-07T01:00:57.698Z,16.60
2022-08-07T01:03:55.358Z,16.60
2022-08-07T01:06:17.866Z,16.50
2022-08-07T01:08:53.386Z,16.60
2022-08-07T01:12:23.370Z,16.60
2022-08-07T01:14:16.531Z,16.60
2022-08-07T01:16:47.184Z,16.60
2022-08-07T01:19:20.422Z,16.60
2022-08-07T01:21:55.659Z,16.60
2022-08-07T01:24:24.704Z,16.50
2022-08-07T01:26:55.579Z,16.50
2022-08-07T01:29:31.388Z,16.50
2022-08-07T01:32:05.597Z,16.50
2022-08-07T01:34:47.413Z,16.50
2022-08-07T01:37:20.776Z,16.40
2022-08-07T01:39:51.357Z,16.40
2022-08-07T01:42:40.235Z,16.30
2022-08-07T01:45:17.933Z,16.30
2022-08-07T01:48:17.678Z,16.20
2022-08-07T01:50:43.323Z,16.30
2022-08-07T01:53:20.832Z,16.30
2022-08-07T01:55:54.842Z,16.30
2022-08-07T01:58:33.066Z,16.40
2022-08-07T02:01:25.502Z,16.50
2022-08-07T02:03:59.690Z,16.50
2022-08-07T02:06:32.684Z,16.50
2022-08-07T02:09:06.748Z,16.50
2022-08-07T02:12:03.683Z,16.50
2022-08-07T02:14:35.961Z,16.30
2022-08-07T02:17:24.836Z,16.30
2022-08-07T02:20:05.551Z,16.10
2022-08-07T02:22:41.392Z,16.10
2022-08-07T02:25:18.165Z,16.10
2022-08-07T02:27:51.298Z,16.10
2022-08-07T02:30:22.870Z,16.10
2022-08-07T02:33:00.730Z,16.10
2022-08-07T02:36:29.205Z,15.90
2022-08-07T02:38:35.686Z,15.90
2022-08-07T02:41:07.997Z,15.80
2022-08-07T02:43:43.285Z,15.70
2022-08-07T02:46:19.971Z,15.70
2022-08-07T02:48:54.904Z,15.70
2022-08-07T02:51:41.834Z,15.70
2022-08-07T02:54:19.041Z,15.60
2022-08-07T02:56:51.300Z,15.50
2022-08-07T02:59:24.078Z,15.50
2022-08-07T03:02:01.184Z,15.50
2022-08-07T03:04:39.054Z,15.50
2022-08-07T03:07:10.826Z,15.30
2022-08-07T03:09:43.773Z,15.30
2022-08-07T03:12:22.413Z,15.20
2022-08-07T03:15:02.365Z,15.10
2022-08-07T03:17:53.479Z,14.80
2022-08-07T03:20:23.851Z,14.90
2022-08-07T03:23:00.696Z,14.90
2022-08-07T03:25:41.494Z,14.70
2022-08-07T03:28:37.378Z,14.80
2022-08-07T03:31:24.459Z,14.70
2022-08-07T03:34:00.861Z,14.50
2022-08-07T03:36:31.492Z,14.60
2022-08-07T03:39:05.738Z,14.60
2022-08-07T03:41:42.031Z,14.50
2022-08-07T03:44:31.745Z,14.50
2022-08-07T03:47:13.465Z,14.50
2022-08-07T03:49:48.028Z,14.40
2022-08-07T03:52:26.088Z,14.60
2022-08-07T03:55:07.151Z,14.40
2022-08-07T03:58:33.992Z,14.40
2022-08-07T04:00:35.641Z,14.40
2022-08-07T04:03:06.669Z,14.30
2022-08-07T04:05:41.957Z,14.10
2022-08-07T04:08:16.191Z,14.30
2022-08-07T04:10:54.563Z,14.30
2022-08-07T04:14:10.557Z,14.20
2022-08-07T04:16:30.935Z,14.20
2022-08-07T04:19:04.034Z,14.20
2022-08-07T04:21:58.783Z,14.00
2022-08-07T04:24:34.125Z,14.30
2022-08-07T04:27:20.822Z,14.30
2022-08-07T04:30:02.313Z,14.30
2022-08-07T04:32:35.292Z,14.40
2022-08-07T04:35:06.333Z,14.40
2022-08-07T04:38:00.907Z,14.60
2022-08-07T04:40:30.173Z,14.40
2022-08-07T04:43:04.233Z,14.50
2022-08-07T04:46:01.164Z,14.50
2022-08-07T04:48:47.342Z,14.50
2022-08-07T04:51:29.711Z,14.80
2022-08-07T04:54:06.938Z,15.50
2022-08-07T04:58:10.149Z,15.90
2022-08-07T05:00:09.664Z,15.80
2022-08-07T05:02:50.003Z,15.60
2022-08-07T05:05:53.606Z,15.80
2022-08-07T05:09:00.126Z,16.30
2022-08-07T05:11:19.530Z,16.90
2022-08-07T05:14:55.701Z,17.40
2022-08-07T05:16:53.941Z,18.50
2022-08-07T05:19:44.258Z,19.70
2022-08-07T05:22:26.929Z,20.80
2022-08-07T05:24:58.731Z,21.60
2022-08-07T05:28:02.574Z,22.30
2022-08-07T05:30:32.421Z,23.00
2022-08-07T05:33:05.544Z,23.20
2022-08-07T05:35:42.473Z,23.70
2022-08-07T05:39:00.607Z,24.30
2022-08-07T05:41:14.137Z,24.80
2022-08-07T05:44:07.655Z,25.10
2022-08-07T05:46:43.016Z,25.60
2022-08-07T05:49:24.601Z,25.70
2022-08-07T05:51:56.067Z,25.60
2022-08-07T05:54:31.129Z,26.30
2022-08-07T05:57:18.268Z,26.40
2022-08-07T05:59:57.463Z,26.70
2022-08-07T06:02:32.542Z,26.90
2022-08-07T06:05:07.815Z,26.90
2022-08-07T06:08:29.847Z,27.50
2022-08-07T06:10:40.529Z,27.50
2022-08-07T06:13:13.357Z,27.90
2022-08-07T06:15:44.523Z,28.30
2022-08-07T06:18:27.954Z,28.50
2022-08-07T06:22:15.070Z,28.80
2022-08-07T06:24:46.079Z,29.10
2022-08-07T06:26:45.257Z,29.10
2022-08-07T06:29:16.926Z,29.50
2022-08-07T06:31:50.368Z,29.70
2022-08-07T06:34:22.024Z,30.00
2022-08-07T06:36:52.464Z,30.20
2022-08-07T06:40:13.135Z,30.30
2022-08-07T06:42:33.158Z,30.60
2022-08-07T06:45:06.939Z,30.70
2022-08-07T06:47:57.339Z,30.70
2022-08-07T06:50:30.444Z,30.70
2022-08-07T06:53:04.077Z,31.10
2022-08-07T06:55:53.465Z,31.40
2022-08-07T06:58:28.904Z,31.20
2022-08-07T07:01:11.185Z,31.50
2022-08-07T07:03:50.022Z,31.20
2022-08-07T07:06:28.476Z,31.60
2022-08-07T07:08:58.154Z,31.80
2022-08-07T07:12:08.178Z,32.20
2022-08-07T07:14:50.128Z,31.90
2022-08-07T07:17:39.113Z,31.90
2022-08-07T07:20:16.949Z,31.80
2022-08-07T07:24:06.582Z,32.40
2022-08-07T07:26:32.190Z,32.80
2022-08-07T07:31:39.698Z,33.50
2022-08-07T07:34:15.498Z,33.60
2022-08-07T07:36:54.011Z,33.50
2022-08-07T07:39:25.709Z,33.90
2022-08-07T07:42:14.058Z,33.70
2022-08-07T07:44:54.627Z,34.10
2022-08-07T07:47:29.923Z,33.90
2022-08-07T07:50:34.081Z,33.80
2022-08-07T07:52:58.099Z,34.00
2022-08-07T07:55:37.531Z,34.20
2022-08-07T07:58:29.692Z,34.10
2022-08-07T08:02:03.206Z,33.30
2022-08-07T08:04:10.435Z,33.60
2022-08-07T08:06:55.205Z,33.70
2022-08-07T08:09:29.593Z,33.40
2022-08-07T08:12:05.259Z,34.20
2022-08-07T08:14:43.455Z,34.60
2022-08-07T08:17:56.774Z,35.00
2022-08-07T08:20:23.106Z,34.60
2022-08-07T08:23:17.103Z,34.80
2022-08-07T08:26:10.640Z,34.80
2022-08-07T08:31:58.956Z,35.20
2022-08-07T08:34:29.016Z,35.10
2022-08-07T08:37:09.689Z,35.40
2022-08-07T08:39:55.129Z,35.50
2022-08-07T08:42:42.144Z,35.80
2022-08-07T08:45:41.981Z,35.80
2022-08-07T08:48:36.224Z,35.60
2022-08-07T08:51:14.228Z,35.60
2022-08-07T08:54:09.151Z,35.60
2022-08-07T08:56:58.726Z,35.40
2022-08-07T08:59:48.587Z,35.50
2022-08-07T09:02:37.321Z,35.20
2022-08-07T09:05:36.623Z,34.60
2022-08-07T09:08:42.393Z,34.20
2022-08-07T09:11:43.361Z,34.00
2022-08-07T09:14:33.812Z,34.20
2022-08-07T09:17:27.554Z,33.90
2022-08-07T09:24:32.925Z,34.10
2022-08-07T09:26:50.930Z,32.90
2022-08-07T09:30:04.373Z,32.50
2022-08-07T09:33:41.114Z,32.60
2022-08-07T09:36:16.866Z,33.20
2022-08-07T09:38:58.093Z,33.60
2022-08-07T09:42:03.009Z,33.90
2022-08-07T09:47:52.425Z,33.90
2022-08-07T09:48:14.558Z,34.00
2022-08-07T09:52:10.449Z,34.20
2022-08-07T09:54:21.691Z,34.20
2022-08-07T10:00:32.210Z,34.00
2022-08-07T10:04:05.922Z,33.70
2022-08-07T10:11:16.710Z,33.00
2022-08-07T10:14:11.434Z,33.20
2022-08-07T10:17:16.825Z,32.80
2022-08-07T10:20:30.595Z,32.50
2022-08-07T10:27:30.224Z,31.40
2022-08-07T10:30:21.230Z,31.20
2022-08-07T10:42:58.015Z,30.30
2022-08-07T10:45:57.823Z,30.30
2022-08-07T10:48:41.500Z,29.60
2022-08-07T10:51:57.662Z,30.00
2022-08-07T10:54:24.094Z,30.20
2022-08-07T10:57:12.061Z,30.20
2022-08-07T11:00:36.442Z,30.20
2022-08-07T11:03:37.585Z,30.30
2022-08-07T11:10:10.032Z,31.30
2022-08-07T11:12:43.384Z,31.30
2022-08-07T11:25:14.985Z,31.90
2022-08-07T11:28:39.050Z,31.90
2022-08-07T11:31:27.574Z,32.00
2022-08-07T11:34:10.865Z,31.60
2022-08-07T11:37:12.660Z,31.80
2022-08-07T11:43:04.032Z,31.10
2022-08-07T11:46:16.984Z,31.00
2022-08-07T11:49:27.574Z,31.10
2022-08-07T11:53:07.307Z,31.00
2022-08-07T11:56:15.565Z,31.20
2022-08-07T12:03:42.060Z,30.60
2022-08-07T12:06:51.631Z,30.50
2022-08-07T12:10:12.530Z,30.20
2022-08-07T12:12:58.009Z,30.40
2022-08-07T12:16:05.417Z,30.60
2022-08-07T12:18:35.577Z,30.70
2022-08-07T12:21:55.056Z,30.10
2022-08-07T12:24:38.527Z,29.60
2022-08-07T12:27:17.562Z,29.50
2022-08-07T12:33:23.313Z,30.20
2022-08-07T12:36:05.656Z,30.20
2022-08-07T12:38:57.872Z,30.30
2022-08-07T12:41:52.806Z,30.40
2022-08-07T12:44:32.692Z,30.40
2022-08-07T12:47:21.801Z,30.20
2022-08-07T12:50:38.114Z,30.40
2022-08-07T12:53:05.261Z,30.20
2022-08-07T12:56:22.225Z,29.80
2022-08-07T12:59:54.177Z,29.60
2022-08-07T13:06:54.250Z,29.50
2022-08-07T13:10:37.628Z,29.60
2022-08-07T13:12:58.971Z,29.20
2022-08-07T13:15:41.385Z,29.30
2022-08-07T13:18:26.710Z,29.30
2022-08-07T13:21:10.215Z,29.10
2022-08-07T13:24:04.339Z,29.00
2022-08-07T13:26:46.124Z,29.10
2022-08-07T13:29:20.399Z,29.10
2022-08-07T13:31:58.076Z,28.80
2022-08-07T13:34:44.693Z,28.50
2022-08-07T13:37:30.207Z,28.40
2022-08-07T13:40:36.735Z,28.50
2022-08-07T13:43:13.844Z,28.40
2022-08-07T13:46:25.599Z,28.30
2022-08-07T13:49:02.181Z,28.10
2022-08-07T13:52:22.819Z,28.20
2022-08-07T13:54:33.767Z,28.30
2022-08-07T13:57:21.987Z,28.10
2022-08-07T13:59:56.360Z,28.10
2022-08-07T14:02:45.772Z,28.00
2022-08-07T14:05:38.310Z,28.00
2022-08-07T14:08:37.372Z,27.90
2022-08-07T14:11:23.897Z,28.00
2022-08-07T14:14:06.178Z,27.90
2022-08-07T14:16:49.845Z,27.90
2022-08-07T14:20:43.595Z,27.80
2022-08-07T14:22:42.079Z,27.70
2022-08-07T14:25:25.671Z,27.60
2022-08-07T14:28:15.499Z,27.50
2022-08-07T14:31:04.558Z,27.40
2022-08-07T14:33:45.919Z,27.10
2022-08-07T14:36:25.875Z,27.00
2022-08-07T14:38:58.669Z,27.00
2022-08-07T14:44:33.735Z,26.80
2022-08-07T14:47:14.590Z,26.90
2022-08-07T14:52:43.414Z,27.00
2022-08-07T14:55:31.857Z,27.00
2022-08-07T14:58:04.157Z,27.00
2022-08-07T15:00:52.619Z,27.00
2022-08-07T15:03:52.158Z,26.80
2022-08-07T15:06:30.288Z,26.90
2022-08-07T15:09:58.409Z,26.70
2022-08-07T15:12:03.695Z,26.70
2022-08-07T15:14:57.608Z,26.60
2022-08-07T15:17:54.691Z,26.60
2022-08-07T15:20:55.214Z,26.70
2022-08-07T15:25:13.103Z,26.70
2022-08-07T15:26:44.287Z,26.70
2022-08-07T15:32:11.725Z,26.80
2022-08-07T15:43:53.722Z,26.80
2022-08-07T15:46:38.369Z,26.60
2022-08-07T15:49:15.223Z,26.40
2022-08-07T15:54:47.606Z,26.50
2022-08-07T15:57:47.540Z,26.60
2022-08-07T16:00:31.011Z,26.50
2022-08-07T16:03:21.381Z,26.60
2022-08-07T16:05:57.930Z,26.70
2022-08-07T16:08:38.850Z,26.70
2022-08-07T16:11:41.648Z,26.60
2022-08-07T16:14:19.409Z,26.80
2022-08-07T16:17:16.085Z,26.60
2022-08-07T16:20:34.248Z,26.60
2022-08-07T16:23:53.596Z,26.40
2022-08-07T16:26:59.328Z,26.30
2022-08-07T16:30:30.057Z,26.20
2022-08-07T16:34:01.334Z,26.00
2022-08-07T16:37:02.560Z,26.00
2022-08-07T16:40:01.174Z,26.00
2022-08-07T16:42:48.176Z,25.90
2022-08-07T16:46:40.691Z,25.70
2022-08-07T16:50:29.224Z,26.00
2022-08-07T16:54:01.444Z,25.90
2022-08-07T16:56:20.903Z,26.00
2022-08-07T16:59:10.690Z,26.00
2022-08-07T17:04:58.678Z,26.00
2022-08-07T17:08:09.228Z,26.00
2022-08-07T17:10:54.354Z,26.10
2022-08-07T17:14:18.409Z,26.10
2022-08-07T17:16:58.029Z,26.00
2022-08-07T17:20:01.664Z,25.90
2022-08-07T17:22:38.471Z,25.70
2022-08-07T17:25:51.136Z,25.70
2022-08-07T17:28:31.408Z,25.60
2022-08-07T17:31:16.233Z,25.70
2022-08-07T17:34:34.808Z,25.70
2022-08-07T17:40:31.195Z,25.50
2022-08-07T17:43:18.209Z,25.50
2022-08-07T17:45:59.035Z,25.40
2022-08-07T17:48:33.873Z,25.40
2022-08-07T17:51:14.186Z,25.30
2022-08-07T17:54:06.148Z,25.30
2022-08-07T17:56:52.672Z,25.20
2022-08-07T17:59:35.408Z,25.20
2022-08-07T18:02:23.186Z,25.10
2022-08-07T18:05:20.995Z,25.10
2022-08-07T18:08:35.477Z,25.10
2022-08-07T18:12:16.226Z,25.00
2022-08-07T18:14:29.752Z,25.10
2022-08-07T18:17:10.742Z,25.20
2022-08-07T18:21:08.598Z,25.20
2022-08-07T18:22:55.412Z,25.10
2022-08-07T18:25:40.108Z,25.20
2022-08-07T18:28:35.706Z,25.10
2022-08-07T18:35:01.093Z,25.00
2022-08-07T18:38:55.628Z,25.00
2022-08-07T18:40:53.438Z,24.90
2022-08-07T18:43:50.551Z,24.90
2022-08-07T18:46:43.101Z,24.80
2022-08-07T18:50:31.133Z,24.50
2022-08-07T18:52:53.029Z,24.60
2022-08-07T18:55:55.473Z,24.50
2022-08-07T18:58:37.025Z,24.50
2022-08-07T19:02:31.892Z,24.40
2022-08-07T19:04:39.831Z,24.30
2022-08-07T19:07:35.014Z,24.30
2022-08-07T19:10:18.209Z,24.20
2022-08-07T19:13:10.064Z,24.20
2022-08-07T19:16:05.026Z,24.20
2022-08-07T19:18:46.505Z,24.10
2022-08-07T19:21:46.602Z,24.00
2022-08-07T19:24:31.055Z,24.00
2022-08-07T19:28:58.448Z,24.00
2022-08-07T19:31:05.895Z,24.00
2022-08-07T19:32:59.800Z,23.90
2022-08-07T19:35:42.418Z,23.90
2022-08-07T19:38:19.601Z,23.80
2022-08-07T19:41:06.981Z,23.70
2022-08-07T19:43:51.189Z,23.70
2022-08-07T19:46:28.982Z,23.60
2022-08-07T19:49:04.973Z,23.60
2022-08-07T19:51:52.736Z,23.60
2022-08-07T19:54:55.790Z,23.50
2022-08-07T19:58:00.891Z,23.50
2022-08-07T20:00:28.468Z,23.40
2022-08-07T20:03:03.631Z,23.30
2022-08-07T20:06:00.084Z,23.30
2022-08-07T20:08:30.280Z,23.20
2022-08-07T20:11:10.086Z,23.20
2022-08-07T20:13:50.680Z,23.10
2022-08-07T20:16:35.201Z,23.00
2022-08-07T20:19:06.205Z,22.90
2022-08-07T20:21:47.244Z,22.80
2022-08-07T20:24:24.038Z,22.70
2022-08-07T20:27:02.618Z,22.60
2022-08-07T20:29:47.872Z,22.60
2022-08-07T20:32:25.479Z,22.60
2022-08-07T20:35:01.977Z,22.50
2022-08-07T20:37:55.227Z,22.40
2022-08-07T20:40:34.300Z,22.40
2022-08-07T20:43:20.891Z,22.40
2022-08-07T20:49:55.217Z,22.30
2022-08-07T20:51:50.353Z,22.20
2022-08-07T20:57:32.986Z,21.90
2022-08-07T21:00:13.181Z,22.10
2022-08-07T21:03:11.166Z,22.00
2022-08-07T21:06:21.594Z,21.70
2022-08-07T21:09:14.411Z,21.80
2022-08-07T21:11:50.900Z,21.90
2022-08-07T21:14:48.498Z,21.90
2022-08-07T21:18:06.189Z,21.80
2022-08-07T21:23:50.097Z,21.70
2022-08-07T21:26:47.815Z,21.60
2022-08-07T21:29:30.551Z,21.60
2022-08-07T21:32:46.945Z,21.50
2022-08-07T21:35:34.658Z,21.30
2022-08-07T21:38:44.205Z,21.30
2022-08-07T21:41:25.271Z,21.10
2022-08-07T21:44:28.343Z,21.10
2022-08-07T21:47:07.474Z,21.20
2022-08-07T21:50:14.532Z,21.20
2022-08-07T21:53:25.235Z,21.00
2022-08-07T21:56:36.225Z,21.00
2022-08-07T21:59:05.409Z,21.10
2022-08-07T22:02:10.323Z,21.00
2022-08-07T22:04:39.020Z,21.10
2022-08-07T22:07:16.310Z,21.20
2022-08-07T22:10:01.852Z,20.80
2022-08-07T22:12:38.458Z,21.00
2022-08-07T22:16:39.739Z,21.00
2022-08-07T22:18:19.214Z,20.90
2022-08-07T22:20:55.722Z,20.80
2022-08-07T22:23:34.975Z,20.80
2022-08-07T22:26:18.675Z,20.80
2022-08-07T22:28:58.405Z,20.70
2022-08-07T22:31:59.035Z,20.30
2022-08-07T22:34:35.615Z,20.60
2022-08-07T22:37:15.398Z,20.60
2022-08-07T22:39:54.327Z,20.60
2022-08-07T22:42:30.820Z,20.60
2022-08-07T22:45:11.014Z,20.60
2022-08-07T22:48:31.671Z,20.70
2022-08-07T22:51:36.462Z,20.60
2022-08-07T22:54:23.393Z,20.50
2022-08-07T22:57:16.907Z,20.30
2022-08-07T22:59:53.856Z,20.00
2022-08-07T23:02:49.154Z,20.40
2022-08-07T23:06:15.257Z,20.40
2022-08-07T23:10:03.699Z,20.20
2022-08-07T23:12:32.632Z,20.50
2022-08-07T23:15:21.863Z,20.30
2022-08-07T23:18:25.991Z,20.20
2022-08-07T23:21:30.393Z,20.00
2022-08-07T23:24:38.557Z,20.00
2022-08-07T23:28:22.401Z,19.90
2022-08-07T23:34:52.043Z,19.90
2022-08-07T23:38:00.896Z,19.90
2022-08-07T23:40:41.626Z,20.00
2022-08-07T23:43:38.046Z,19.90
2022-08-07T23:46:30.243Z,19.80
2022-08-07T23:49:47.488Z,19.90
2022-08-07T23:53:06.190Z,19.80
2022-08-07T23:55:52.437Z,19.40
2022-08-07T23:58:37.220Z,19.60
